Time;durP1;ratioP1;P1;durP2;ratioP2;P2;SDS_P1;SDS_P2;PMS_P1;PMS_P2;Temp;Humidity;BMP_temperature;BMP_pressure;BME280_temperature;BME280_humidity;BME280_pressure;Samples;Min_cycle;Max_cycle;Signal;HPM_P1;HPM_P2
2023/02/22 00:00:44;;;;;;;11.50;8.20;;;9.60;99.90;;;;;;2077923;28;20029;-80
2023/02/22 00:01:49;;;;;;;12.65;9.00;;;9.60;99.90;;;;;;2078589;28;20021;-81
2023/02/22 00:02:51;;;;;;;12.82;9.13;;;9.60;99.90;;;;;;2077188;28;20563;-80
2023/02/22 00:03:52;;;;;;;14.90;9.18;;;9.60;99.90;;;;;;2085273;28;20060;-79
2023/02/22 00:04:53;;;;;;;12.82;8.55;;;9.60;99.90;;;;;;2099853;28;20040;-80
2023/02/22 00:06:04;;;;;;;12.05;8.48;;;9.60;99.90;;;;;;2081935;28;20032;-79
2023/02/22 00:07:06;;;;;;;11.55;8.48;;;9.60;99.90;;;;;;2081759;28;20082;-80
2023/02/22 00:08:08;;;;;;;10.68;7.35;;;9.50;99.90;;;;;;2079276;28;20055;-80
2023/02/22 00:09:09;;;;;;;11.95;7.68;;;9.50;99.90;;;;;;2077580;28;20453;-79
2023/02/22 00:10:13;;;;;;;11.13;7.72;;;9.50;99.90;;;;;;2077431;28;20024;-79
2023/02/22 00:11:14;;;;;;;12.40;7.78;;;9.50;99.90;;;;;;2077542;28;20100;-80
2023/02/22 00:12:14;;;;;;;11.73;7.32;;;9.50;99.90;;;;;;2076599;28;20132;-79
2023/02/22 00:13:16;;;;;;;12.35;8.00;;;9.50;99.90;;;;;;2078727;28;20043;-79
2023/02/22 00:14:19;;;;;;;11.43;8.00;;;9.50;99.90;;;;;;2077602;28;20581;-80
2023/02/22 00:15:26;;;;;;;10.68;7.50;;;9.50;99.90;;;;;;2077231;28;20060;-79
2023/02/22 00:16:27;;;;;;;10.02;7.07;;;9.40;99.90;;;;;;2077237;28;20468;-80
2023/02/22 00:17:29;;;;;;;10.57;7.57;;;9.40;99.90;;;;;;2081401;28;20245;-79
2023/02/22 00:18:32;;;;;;;11.13;7.88;;;9.40;99.90;;;;;;2075392;28;20021;-80
2023/02/22 00:19:33;;;;;;;11.25;7.55;;;9.30;99.90;;;;;;2076240;28;20025;-81
2023/02/22 00:20:33;;;;;;;10.75;7.68;;;9.30;99.90;;;;;;2080253;28;20454;-81
2023/02/22 00:21:34;;;;;;;12.00;7.72;;;9.30;99.90;;;;;;2081694;28;20538;-82
2023/02/22 00:22:34;;;;;;;10.85;7.85;;;9.30;99.90;;;;;;2097693;28;20055;-80
2023/02/22 00:23:38;;;;;;;11.43;7.82;;;9.30;99.90;;;;;;2087317;28;20116;-80
2023/02/22 00:24:39;;;;;;;11.68;8.30;;;9.20;99.90;;;;;;2073255;28;20086;-79
2023/02/22 00:25:39;;;;;;;11.70;8.60;;;9.20;99.90;;;;;;2074948;28;20495;-81
2023/02/22 00:26:40;;;;;;;13.60;8.30;;;9.20;99.90;;;;;;2074499;28;20554;-80
2023/02/22 00:27:41;;;;;;;13.80;8.52;;;9.20;99.90;;;;;;2080020;28;20040;-79
2023/02/22 00:28:41;;;;;;;11.75;8.20;;;9.20;99.90;;;;;;2073716;28;20044;-80
2023/02/22 00:29:45;;;;;;;11.07;7.90;;;9.20;99.90;;;;;;2074422;28;20057;-80
2023/02/22 00:30:47;;;;;;;12.35;8.00;;;9.20;99.90;;;;;;2073746;28;20029;-81
2023/02/22 00:31:47;;;;;;;12.05;8.13;;;9.10;99.90;;;;;;2071051;28;20029;-81
2023/02/22 00:32:49;;;;;;;12.18;8.30;;;9.10;99.90;;;;;;2079082;28;20119;-81
2023/02/22 00:33:49;;;;;;;12.10;8.68;;;9.00;99.90;;;;;;2093388;28;20115;-81
2023/02/22 00:34:52;;;;;;;10.82;7.82;;;9.10;99.90;;;;;;2093336;28;20664;-81
2023/02/22 00:35:53;;;;;;;11.07;7.68;;;9.00;99.90;;;;;;2093287;28;20024;-80
2023/02/22 00:36:54;;;;;;;10.90;7.82;;;9.00;99.90;;;;;;2095739;28;20020;-80
2023/02/22 00:37:58;;;;;;;12.02;7.97;;;9.00;99.90;;;;;;2080573;28;20028;-81
2023/02/22 00:38:59;;;;;;;11.02;7.85;;;8.90;99.90;;;;;;2079901;28;20040;-82
2023/02/22 00:39:59;;;;;;;10.60;7.95;;;8.90;99.90;;;;;;2078438;28;20120;-80
2023/02/22 00:41:00;;;;;;;11.02;7.43;;;8.90;99.90;;;;;;2093584;28;20143;-80
2023/02/22 00:42:01;;;;;;;11.73;7.97;;;8.90;99.90;;;;;;2082261;28;20063;-80
2023/02/22 00:43:04;;;;;;;11.35;7.88;;;8.90;99.90;;;;;;2083674;28;20067;-81
2023/02/22 00:44:05;;;;;;;11.63;7.90;;;8.80;99.90;;;;;;2093031;28;20103;-81
2023/02/22 00:45:06;;;;;;;11.18;8.13;;;8.80;99.90;;;;;;2075611;28;20025;-82
2023/02/22 00:46:09;;;;;;;11.85;8.25;;;8.80;99.90;;;;;;2093583;28;20128;-81
2023/02/22 00:47:10;;;;;;;10.73;7.20;;;8.80;99.90;;;;;;2095418;28;20027;-79
2023/02/22 00:48:10;;;;;;;11.75;8.18;;;8.80;99.90;;;;;;2081637;28;20029;-81
2023/02/22 00:49:11;;;;;;;10.38;7.28;;;8.80;99.90;;;;;;2077981;28;20021;-81
2023/02/22 00:50:12;;;;;;;10.77;7.70;;;8.80;99.90;;;;;;2086263;28;20036;-81
2023/02/22 00:51:13;;;;;;;11.50;7.80;;;8.80;99.90;;;;;;2080734;28;20582;-81
2023/02/22 00:52:13;;;;;;;10.88;7.78;;;8.80;99.90;;;;;;2078787;28;20072;-80
2023/02/22 00:53:14;;;;;;;10.35;7.40;;;8.80;99.90;;;;;;2068592;28;20502;-80
2023/02/22 00:54:18;;;;;;;11.73;7.60;;;8.80;99.90;;;;;;2076860;28;20029;-80
2023/02/22 00:55:26;;;;;;;9.43;7.25;;;8.70;99.90;;;;;;2092954;28;20123;-81
2023/02/22 00:56:26;;;;;;;9.70;7.45;;;8.70;99.90;;;;;;2080971;28;20055;-80
2023/02/22 00:57:27;;;;;;;10.88;7.25;;;8.70;99.90;;;;;;2096151;28;20055;-82
2023/02/22 00:58:27;;;;;;;9.57;6.95;;;8.70;99.90;;;;;;2100325;28;20527;-80
2023/02/22 00:59:30;;;;;;;11.30;7.70;;;8.70;99.90;;;;;;2076720;28;20116;-81
2023/02/22 01:00:35;;;;;;;10.23;7.28;;;8.70;99.90;;;;;;2078064;28;20450;-81
2023/02/22 01:01:35;;;;;;;9.38;7.50;;;8.70;99.90;;;;;;2079467;28;20634;-82
2023/02/22 01:02:37;;;;;;;9.65;6.95;;;8.60;99.90;;;;;;2075072;28;20299;-81
2023/02/22 01:03:40;;;;;;;11.82;7.22;;;8.60;99.90;;;;;;2080404;28;20068;-81
2023/02/22 01:04:41;;;;;;;9.40;6.78;;;8.70;99.90;;;;;;2085133;28;20033;-81
2023/02/22 01:05:41;;;;;;;10.20;7.18;;;8.60;99.90;;;;;;2091425;28;20032;-75
2023/02/22 01:06:42;;;;;;;11.32;7.50;;;8.60;99.90;;;;;;2078149;28;20022;-72
2023/02/22 01:07:43;;;;;;;10.20;7.40;;;8.70;99.90;;;;;;2090698;28;20028;-76
2023/02/22 01:08:45;;;;;;;11.10;7.07;;;8.70;99.90;;;;;;2077672;28;20052;-68
2023/02/22 01:09:46;;;;;;;10.13;7.53;;;8.60;99.90;;;;;;2069785;28;20037;-80
2023/02/22 01:10:46;;;;;;;10.25;7.68;;;8.70;99.90;;;;;;2075059;28;20037;-79
2023/02/22 01:11:54;;;;;;;9.98;7.45;;;8.70;99.90;;;;;;2084600;28;20028;-80
2023/02/22 01:12:55;;;;;;;10.70;7.53;;;8.70;99.90;;;;;;2084133;28;20351;-80
2023/02/22 01:13:56;;;;;;;10.60;7.43;;;8.70;99.90;;;;;;2077663;28;20516;-80
2023/02/22 01:14:57;;;;;;;10.35;7.70;;;8.70;99.90;;;;;;2074142;28;20052;-79
2023/02/22 01:15:59;;;;;;;9.25;7.28;;;8.70;99.90;;;;;;2079824;28;20031;-78
2023/02/22 01:17:00;;;;;;;9.88;7.70;;;8.80;99.90;;;;;;2090283;28;20471;-79
2023/02/22 01:18:00;;;;;;;10.60;7.93;;;8.70;99.90;;;;;;2082855;28;20531;-80
2023/02/22 01:19:01;;;;;;;11.38;7.78;;;8.80;99.90;;;;;;2086119;28;20345;-79
2023/02/22 01:20:09;;;;;;;10.35;7.70;;;8.80;99.90;;;;;;2088321;28;20036;-79
2023/02/22 01:21:09;;;;;;;11.52;7.93;;;8.80;99.90;;;;;;2074528;28;20511;-79
2023/02/22 01:22:10;;;;;;;10.10;7.53;;;8.90;99.90;;;;;;2081344;28;20025;-80
2023/02/22 01:23:16;;;;;;;12.82;7.55;;;8.90;99.90;;;;;;2078789;28;20029;-81
2023/02/22 01:24:18;;;;;;;12.82;8.35;;;8.90;99.90;;;;;;2095219;28;20031;-80
2023/02/22 01:25:21;;;;;;;12.45;8.52;;;8.90;99.90;;;;;;2083556;28;20029;-79
2023/02/22 01:26:23;;;;;;;13.73;8.93;;;9.00;99.90;;;;;;2076022;28;20033;-80
2023/02/22 01:27:24;;;;;;;12.27;8.90;;;8.90;99.90;;;;;;2079656;28;20029;-80
2023/02/22 01:28:25;;;;;;;12.52;8.98;;;8.90;99.90;;;;;;2082177;28;20500;-79
2023/02/22 01:29:25;;;;;;;12.82;8.85;;;8.90;99.90;;;;;;2071388;28;20544;-80
2023/02/22 01:30:31;;;;;;;12.13;8.60;;;8.90;99.90;;;;;;2079627;28;20021;-80
2023/02/22 01:31:32;;;;;;;13.05;8.90;;;9.00;99.90;;;;;;2083737;28;20032;-79
2023/02/22 01:32:34;;;;;;;11.45;8.57;;;9.00;99.90;;;;;;2079996;28;20025;-80
2023/02/22 01:33:34;;;;;;;12.60;8.90;;;9.00;99.90;;;;;;2078613;28;20038;-80
2023/02/22 01:34:35;;;;;;;12.95;8.85;;;8.90;99.90;;;;;;2086833;28;20654;-80
2023/02/22 01:35:39;;;;;;;11.57;8.50;;;8.90;99.90;;;;;;2099399;28;20035;-80
2023/02/22 01:36:40;;;;;;;12.73;9.10;;;8.90;99.90;;;;;;2078173;28;20639;-80
2023/02/22 01:37:41;;;;;;;13.10;8.68;;;8.90;99.90;;;;;;2078709;28;20080;-81
2023/02/22 01:38:41;;;;;;;12.88;8.57;;;8.90;99.90;;;;;;2079576;28;20033;-77
2023/02/22 01:39:42;;;;;;;12.73;9.23;;;8.90;99.90;;;;;;2088644;28;20040;-80
2023/02/22 01:40:46;;;;;;;12.40;8.93;;;8.90;99.90;;;;;;2084014;28;20304;-80
2023/02/22 01:41:47;;;;;;;13.25;8.98;;;8.90;99.90;;;;;;2089502;28;20050;-81
2023/02/22 01:42:52;;;;;;;13.40;9.50;;;8.90;99.90;;;;;;2097851;28;20051;-79
2023/02/22 01:43:52;;;;;;;16.35;9.98;;;8.80;99.90;;;;;;2088184;28;20028;-80
2023/02/22 01:45:33;;;;;;;13.85;9.68;;;8.80;99.90;;;;;;2074040;28;20132;-80
2023/02/22 01:46:34;;;;;;;12.73;8.63;;;8.80;99.90;;;;;;2082416;28;20041;-80
2023/02/22 01:47:34;;;;;;;13.60;9.32;;;8.80;99.90;;;;;;2077998;28;20049;-80
2023/02/22 01:48:38;;;;;;;13.10;8.88;;;8.80;99.90;;;;;;2082569;28;20068;-80
2023/02/22 01:49:43;;;;;;;13.45;8.88;;;8.80;99.90;;;;;;2076614;28;20512;-79
2023/02/22 01:50:52;;;;;;;11.85;8.73;;;8.80;99.90;;;;;;2076734;28;20048;-81
2023/02/22 01:51:56;;;;;;;12.35;8.80;;;8.80;99.90;;;;;;2081046;28;20511;-80
2023/02/22 01:52:57;;;;;;;11.93;8.70;;;8.80;99.90;;;;;;2066399;28;20026;-80
2023/02/22 01:54:02;;;;;;;12.82;8.57;;;8.80;99.90;;;;;;2069917;28;20064;-81
2023/02/22 01:55:02;;;;;;;11.18;8.32;;;8.80;99.90;;;;;;2073063;28;20412;-79
2023/02/22 01:56:04;;;;;;;11.95;8.45;;;8.80;99.90;;;;;;2087831;28;20033;-79
2023/02/22 01:57:19;;;;;;;12.60;8.50;;;8.90;99.90;;;;;;2085232;28;20196;-79
2023/02/22 01:58:23;;;;;;;11.40;8.25;;;8.80;99.90;;;;;;2078719;28;20461;-78
2023/02/22 01:59:23;;;;;;;11.95;8.18;;;8.90;99.90;;;;;;2081342;28;20119;-79
2023/02/22 02:00:26;;;;;;;13.10;8.38;;;8.80;99.90;;;;;;2075272;28;20519;-79
2023/02/22 02:01:28;;;;;;;11.52;8.48;;;8.90;99.90;;;;;;2082389;28;20045;-79
2023/02/22 02:02:29;;;;;;;12.20;8.25;;;8.90;99.90;;;;;;2095242;28;20029;-79
2023/02/22 02:03:34;;;;;;;12.23;7.95;;;8.90;99.90;;;;;;2094702;28;20036;-80
2023/02/22 02:04:35;;;;;;;11.60;8.30;;;8.90;99.90;;;;;;2097428;28;20043;-80
2023/02/22 02:05:37;;;;;;;10.75;7.80;;;8.90;99.90;;;;;;2086470;28;20124;-80
2023/02/22 02:06:41;;;;;;;11.73;7.97;;;9.00;99.90;;;;;;2083819;28;20129;-80
2023/02/22 02:07:45;;;;;;;12.55;8.68;;;9.00;99.90;;;;;;2085093;28;20032;-80
2023/02/22 02:09:01;;;;;;;10.98;7.63;;;8.90;99.90;;;;;;2069956;28;20126;-80
2023/02/22 02:10:13;;;;;;;11.15;7.68;;;9.00;99.90;;;;;;2076269;28;20326;-77
2023/02/22 02:11:15;;;;;;;11.85;8.20;;;8.90;99.90;;;;;;2084196;28;20032;-78
2023/02/22 02:12:18;;;;;;;11.00;7.70;;;9.00;99.90;;;;;;2086633;28;20094;-80
2023/02/22 02:13:19;;;;;;;11.13;8.23;;;9.00;99.90;;;;;;2095389;28;20039;-80
2023/02/22 02:14:19;;;;;;;10.52;7.68;;;9.00;99.90;;;;;;2091655;28;20039;-81
2023/02/22 02:15:27;;;;;;;12.05;8.40;;;9.00;99.90;;;;;;2075506;28;20113;-79
2023/02/22 02:16:43;;;;;;;11.20;7.93;;;9.00;99.90;;;;;;2079938;28;20120;-80
2023/02/22 02:17:44;;;;;;;11.27;7.63;;;9.00;99.90;;;;;;2076837;28;20088;-80
2023/02/22 02:18:45;;;;;;;12.15;8.77;;;9.00;99.90;;;;;;2084734;28;20060;-80
2023/02/22 02:20:13;;;;;;;13.02;8.98;;;9.00;99.90;;;;;;2089495;28;20470;-80
2023/02/22 02:21:36;;;;;;;13.10;8.88;;;9.00;99.90;;;;;;2083751;28;20037;-79
2023/02/22 02:23:15;;;;;;;10.98;8.25;;;8.90;99.90;;;;;;2083706;28;20028;-80
2023/02/22 02:25:03;;;;;;;11.98;8.35;;;8.90;99.90;;;;;;2082837;28;20036;-80
2023/02/22 02:26:27;;;;;;;11.60;7.72;;;9.00;99.90;;;;;;2080522;28;20033;-79
2023/02/22 02:28:04;;;;;;;11.88;8.05;;;8.90;99.90;;;;;;2072866;28;20033;-80
2023/02/22 02:29:32;;;;;;;12.02;8.38;;;8.90;99.90;;;;;;2083950;28;20423;-80
2023/02/22 02:30:38;;;;;;;11.95;8.27;;;9.00;99.90;;;;;;2084642;28;20021;-81
2023/02/22 02:32:20;;;;;;;11.43;8.43;;;9.00;99.90;;;;;;2087727;28;20024;-79
2023/02/22 02:33:42;;;;;;;11.82;8.30;;;9.00;99.90;;;;;;2072726;28;20213;-80
2023/02/22 02:35:02;;;;;;;13.35;8.65;;;9.00;99.90;;;;;;2079014;28;20103;-80
2023/02/22 02:36:14;;;;;;;16.13;8.88;;;9.00;99.90;;;;;;2075541;28;20087;-80
2023/02/22 02:37:40;;;;;;;15.57;8.98;;;9.00;99.90;;;;;;2088207;28;20033;-80
2023/02/22 02:38:44;;;;;;;16.02;9.15;;;9.00;99.90;;;;;;2082807;28;20091;-80
2023/02/22 02:40:10;;;;;;;14.52;8.77;;;9.00;99.90;;;;;;2087116;28;20079;-80
2023/02/22 02:41:28;;;;;;;14.98;8.93;;;9.10;99.90;;;;;;2091188;28;20027;-81
2023/02/22 02:42:35;;;;;;;13.73;8.63;;;9.10;99.90;;;;;;2076669;28;20058;-79
2023/02/22 02:43:44;;;;;;;13.07;8.98;;;9.10;99.90;;;;;;2084843;28;20061;-80
2023/02/22 02:44:53;;;;;;;11.93;8.27;;;9.10;99.90;;;;;;2080403;28;20040;-79
2023/02/22 02:46:10;;;;;;;13.70;8.38;;;9.10;99.90;;;;;;2075611;28;20382;-78
2023/02/22 02:47:25;;;;;;;13.35;8.55;;;9.10;99.90;;;;;;2082248;28;20040;-80
2023/02/22 02:48:29;;;;;;;12.90;8.30;;;9.10;99.90;;;;;;2080840;28;20047;-80
2023/02/22 02:49:38;;;;;;;12.45;8.20;;;9.10;99.90;;;;;;2074072;28;20099;-80
2023/02/22 02:50:45;;;;;;;11.23;8.10;;;9.10;99.90;;;;;;2088425;28;20029;-79
2023/02/22 02:51:51;;;;;;;12.15;8.18;;;9.10;99.90;;;;;;2078586;28;20384;-80
2023/02/22 02:52:55;;;;;;;12.02;8.35;;;9.00;99.90;;;;;;2072307;28;20029;-85
2023/02/22 02:53:56;;;;;;;11.70;8.20;;;9.10;99.90;;;;;;2073176;28;20403;-87
2023/02/22 02:54:58;;;;;;;11.50;8.43;;;9.00;99.90;;;;;;2075867;28;20128;-86
2023/02/22 02:55:59;;;;;;;12.82;8.57;;;9.10;99.90;;;;;;2079848;28;20033;-84
2023/02/22 02:57:01;;;;;;;14.27;8.90;;;9.10;99.90;;;;;;2080026;28;20044;-84
2023/02/22 02:58:06;;;;;;;14.18;8.98;;;9.10;99.90;;;;;;2073182;28;20021;-85
2023/02/22 02:59:42;;;;;;;12.55;8.57;;;9.00;99.90;;;;;;2095585;28;20020;-86
2023/02/22 03:00:44;;;;;;;12.25;8.43;;;9.00;99.90;;;;;;2064685;28;20025;-85
2023/02/22 03:02:13;;;;;;;12.63;8.88;;;9.00;99.90;;;;;;2061787;28;20246;-84
2023/02/22 03:03:32;;;;;;;11.70;8.48;;;9.00;99.90;;;;;;2083866;28;20024;-83
2023/02/22 03:04:54;;;;;;;12.48;8.65;;;9.00;99.90;;;;;;2081588;28;20033;-84
2023/02/22 03:06:16;;;;;;;13.43;8.38;;;9.00;99.90;;;;;;2069234;28;20199;-85
2023/02/22 03:07:38;;;;;;;12.00;8.60;;;9.00;99.90;;;;;;2079811;28;20633;-84
2023/02/22 03:08:52;;;;;;;13.35;8.68;;;9.00;99.90;;;;;;2078797;28;20672;-85
2023/02/22 03:10:17;;;;;;;13.50;9.23;;;9.00;99.90;;;;;;2081504;28;20024;-85
2023/02/22 03:11:27;;;;;;;13.23;8.93;;;9.00;99.90;;;;;;2076474;28;20465;-84
2023/02/22 03:12:51;;;;;;;13.30;9.27;;;9.00;99.90;;;;;;2078622;28;20040;-84
2023/02/22 03:14:28;;;;;;;13.07;9.10;;;9.00;99.90;;;;;;2091994;28;20022;-86
2023/02/22 03:15:38;;;;;;;13.00;8.90;;;9.00;99.90;;;;;;2090347;28;20450;-86
2023/02/22 03:17:22;;;;;;;14.10;9.65;;;9.00;99.90;;;;;;2095867;28;20201;-85
2023/02/22 03:18:28;;;;;;;14.63;9.00;;;9.10;99.90;;;;;;2075981;28;20045;-85
2023/02/22 03:19:39;;;;;;;12.32;8.88;;;9.00;99.90;;;;;;2069599;28;20526;-85
2023/02/22 03:20:51;;;;;;;12.60;8.73;;;9.00;99.90;;;;;;2078265;28;20033;-85
2023/02/22 03:22:00;;;;;;;13.65;9.35;;;9.10;99.90;;;;;;2094933;28;20507;-83
2023/02/22 03:23:20;;;;;;;14.07;9.38;;;9.10;99.90;;;;;;2085364;28;20027;-85
2023/02/22 03:24:31;;;;;;;14.27;9.35;;;9.10;99.90;;;;;;2088513;28;20016;-86
2023/02/22 03:25:47;;;;;;;14.90;9.30;;;9.10;99.90;;;;;;2098626;28;20690;-85
2023/02/22 03:26:56;;;;;;;13.25;9.10;;;9.00;99.90;;;;;;2078559;28;20036;-83
2023/02/22 03:28:02;;;;;;;12.87;9.13;;;9.00;99.90;;;;;;2074950;28;20053;-83
2023/02/22 03:29:06;;;;;;;14.32;9.45;;;9.00;99.90;;;;;;2071407;28;20268;-85
2023/02/22 03:30:11;;;;;;;13.00;9.25;;;9.00;99.90;;;;;;2089757;28;20020;-83
2023/02/22 03:31:16;;;;;;;12.15;8.85;;;9.00;99.90;;;;;;2087332;28;20024;-84
2023/02/22 03:32:22;;;;;;;12.35;8.70;;;9.00;99.90;;;;;;2078584;28;20405;-84
2023/02/22 03:33:32;;;;;;;11.68;8.30;;;9.00;99.90;;;;;;2087401;28;22771;-84
2023/02/22 03:34:40;;;;;;;13.38;9.02;;;9.00;99.90;;;;;;2085916;28;20016;-86
2023/02/22 03:35:49;;;;;;;12.90;8.95;;;9.00;99.90;;;;;;2076903;28;20024;-88
2023/02/22 03:36:56;;;;;;;16.23;10.07;;;9.00;99.90;;;;;;2080988;28;20111;-86
2023/02/22 03:38:01;;;;;;;14.63;9.60;;;9.00;99.90;;;;;;2091819;28;20024;-86
2023/02/22 03:39:03;;;;;;;15.55;10.02;;;9.00;99.90;;;;;;2085910;28;20048;-85
2023/02/22 03:40:15;;;;;;;15.00;9.90;;;9.00;99.90;;;;;;2070566;28;20038;-85
2023/02/22 03:41:25;;;;;;;14.55;9.90;;;9.00;99.90;;;;;;2072043;28;20030;-86
2023/02/22 03:42:33;;;;;;;14.25;9.77;;;9.00;99.90;;;;;;2078868;28;20481;-85
2023/02/22 03:43:40;;;;;;;15.05;10.15;;;9.00;99.90;;;;;;2081553;28;20396;-85
2023/02/22 03:44:47;;;;;;;14.10;10.38;;;9.00;99.90;;;;;;2075355;28;20195;-85
2023/02/22 03:45:49;;;;;;;15.32;10.25;;;9.00;99.90;;;;;;2089658;28;20202;-84
2023/02/22 03:46:55;;;;;;;17.50;11.70;;;9.00;99.90;;;;;;2091162;28;20048;-84
2023/02/22 03:48:09;;;;;;;15.43;10.88;;;9.00;99.90;;;;;;2079131;28;20026;-85
2023/02/22 03:49:22;;;;;;;17.25;11.15;;;9.00;99.90;;;;;;2071097;28;20026;-85
2023/02/22 03:50:29;;;;;;;17.55;11.43;;;9.00;99.90;;;;;;2079853;28;20280;-86
2023/02/22 03:51:30;;;;;;;16.90;11.70;;;9.00;99.90;;;;;;2070710;28;20021;-86
2023/02/22 03:52:35;;;;;;;17.15;11.63;;;9.00;99.90;;;;;;2069807;28;20114;-86
2023/02/22 03:53:36;;;;;;;17.35;11.52;;;8.90;99.90;;;;;;2084406;28;20447;-86
2023/02/22 03:54:39;;;;;;;18.05;12.23;;;8.90;99.90;;;;;;2088891;28;20579;-85
2023/02/22 03:55:40;;;;;;;16.63;11.40;;;8.90;99.90;;;;;;2087163;28;20028;-85
2023/02/22 03:56:51;;;;;;;16.20;11.23;;;8.80;99.90;;;;;;2083394;28;20031;-85
2023/02/22 03:57:58;;;;;;;16.27;10.95;;;8.80;99.90;;;;;;2077305;28;20033;-85
2023/02/22 03:59:08;;;;;;;17.25;11.80;;;8.80;99.90;;;;;;2072854;28;20109;-86
2023/02/22 04:00:13;;;;;;;16.30;11.05;;;8.80;99.90;;;;;;2081274;28;20115;-85
2023/02/22 04:01:14;;;;;;;16.95;11.75;;;8.70;99.90;;;;;;2074813;28;20033;-86
2023/02/22 04:02:17;;;;;;;16.90;11.48;;;8.70;99.90;;;;;;2096199;28;20024;-85
2023/02/22 04:03:22;;;;;;;15.32;11.27;;;8.70;99.90;;;;;;2097358;28;20024;-84
2023/02/22 04:04:24;;;;;;;16.63;11.77;;;8.60;99.90;;;;;;2085211;28;20223;-84
2023/02/22 04:05:25;;;;;;;17.75;11.90;;;8.60;99.90;;;;;;2073202;28;20033;-84
2023/02/22 04:06:27;;;;;;;17.73;11.93;;;8.50;99.90;;;;;;2086470;28;20029;-85
2023/02/22 04:07:28;;;;;;;16.98;11.95;;;8.50;99.90;;;;;;2088000;28;20032;-85
2023/02/22 04:08:29;;;;;;;17.42;11.70;;;8.50;99.90;;;;;;2077504;28;20025;-85
2023/02/22 04:09:29;;;;;;;16.98;11.93;;;8.40;99.90;;;;;;2077895;28;20156;-85
2023/02/22 04:10:32;;;;;;;17.52;12.05;;;8.40;99.90;;;;;;2075877;28;20029;-85
2023/02/22 04:11:33;;;;;;;18.50;12.20;;;8.40;99.90;;;;;;2079514;28;20029;-86
2023/02/22 04:12:35;;;;;;;16.30;11.55;;;8.30;99.90;;;;;;2078554;28;20398;-85
2023/02/22 04:13:38;;;;;;;21.15;12.50;;;8.30;99.90;;;;;;2084217;28;20032;-85
2023/02/22 04:14:39;;;;;;;18.63;12.60;;;8.30;99.90;;;;;;2084607;28;20558;-85
2023/02/22 04:15:40;;;;;;;19.50;11.73;;;8.20;99.90;;;;;;2085217;28;20585;-86
2023/02/22 04:16:43;;;;;;;18.05;11.52;;;8.20;99.90;;;;;;2084469;28;20120;-85
2023/02/22 04:17:44;;;;;;;17.58;11.07;;;8.20;99.90;;;;;;2074075;28;20025;-84
2023/02/22 04:18:47;;;;;;;15.82;11.25;;;8.20;99.90;;;;;;2088154;28;20108;-85
2023/02/22 04:19:51;;;;;;;17.25;10.65;;;8.10;99.90;;;;;;2089271;28;20183;-85
2023/02/22 04:20:52;;;;;;;16.23;10.95;;;8.10;99.90;;;;;;2074112;28;20025;-87
2023/02/22 04:22:04;;;;;;;14.45;10.35;;;8.10;99.90;;;;;;2078824;28;20544;-86
2023/02/22 04:23:07;;;;;;;16.77;10.43;;;8.10;99.90;;;;;;2075917;28;20037;-87
2023/02/22 04:24:12;;;;;;;16.40;11.07;;;8.10;99.90;;;;;;2090720;28;20031;-86
2023/02/22 04:25:15;;;;;;;15.68;10.80;;;8.10;99.90;;;;;;2088330;28;20107;-87
2023/02/22 04:26:15;;;;;;;16.92;11.15;;;8.10;99.90;;;;;;2081893;28;20027;-85
2023/02/22 04:27:20;;;;;;;17.13;10.73;;;8.10;99.90;;;;;;2081642;28;20025;-84
2023/02/22 04:28:22;;;;;;;15.90;10.80;;;8.10;99.90;;;;;;2073741;28;20112;-87
2023/02/22 04:29:27;;;;;;;15.85;10.57;;;8.10;99.90;;;;;;2074109;28;20029;-84
2023/02/22 04:30:28;;;;;;;15.75;10.77;;;8.10;99.90;;;;;;2083937;28;20061;-86
2023/02/22 04:31:30;;;;;;;17.05;10.75;;;8.10;99.90;;;;;;2073615;28;20440;-86
2023/02/22 04:32:32;;;;;;;19.05;12.00;;;8.10;99.90;;;;;;2069458;28;20400;-85
2023/02/22 04:33:33;;;;;;;19.80;12.70;;;8.20;99.90;;;;;;2069569;28;20045;-86
2023/02/22 04:34:34;;;;;;;18.30;11.65;;;8.20;99.90;;;;;;2079533;28;20025;-86
2023/02/22 04:35:34;;;;;;;20.52;12.00;;;8.20;99.90;;;;;;2070745;28;20025;-85
2023/02/22 04:36:36;;;;;;;18.08;11.63;;;8.20;99.90;;;;;;2067580;28;20033;-85
2023/02/22 04:37:37;;;;;;;18.58;12.18;;;8.10;99.90;;;;;;2068713;28;20022;-85
2023/02/22 04:38:41;;;;;;;20.20;12.45;;;8.20;99.90;;;;;;2074554;28;20036;-85
2023/02/22 04:39:41;;;;;;;22.05;12.85;;;8.20;99.90;;;;;;2076036;28;20061;-83
2023/02/22 04:40:44;;;;;;;25.35;13.55;;;8.20;99.90;;;;;;2077661;28;20261;-85
2023/02/22 04:41:46;;;;;;;22.40;13.73;;;8.10;99.90;;;;;;2103228;28;20028;-84
2023/02/22 04:42:46;;;;;;;19.42;12.32;;;8.20;99.90;;;;;;2090979;28;20027;-84
2023/02/22 04:43:47;;;;;;;18.70;12.10;;;8.20;99.90;;;;;;2073475;28;20270;-84
2023/02/22 04:44:56;;;;;;;21.05;12.07;;;8.20;99.90;;;;;;2087649;28;20541;-85
2023/02/22 04:45:57;;;;;;;19.50;12.32;;;8.20;99.90;;;;;;2076628;28;20044;-83
2023/02/22 04:46:57;;;;;;;21.00;12.43;;;8.20;99.90;;;;;;2079166;28;20025;-84
2023/02/22 04:47:58;;;;;;;20.70;12.48;;;8.20;99.90;;;;;;2093287;28;20032;-85
2023/02/22 04:48:58;;;;;;;20.95;12.05;;;8.20;99.90;;;;;;2081302;28;20062;-83
2023/02/22 04:50:03;;;;;;;21.75;12.32;;;8.20;99.90;;;;;;2085042;28;20033;-84
2023/02/22 04:51:05;;;;;;;19.80;12.32;;;8.20;99.90;;;;;;2087559;28;20096;-85
2023/02/22 04:52:06;;;;;;;21.02;12.63;;;8.20;99.90;;;;;;2069140;28;20033;-84
2023/02/22 04:53:12;;;;;;;20.23;12.52;;;8.20;99.90;;;;;;2083382;28;20046;-83
2023/02/22 04:54:13;;;;;;;19.65;12.60;;;8.20;99.90;;;;;;2088736;28;20029;-83
2023/02/22 04:55:19;;;;;;;19.00;12.25;;;8.30;99.90;;;;;;2083630;28;20091;-83
2023/02/22 04:56:20;;;;;;;20.17;12.65;;;8.30;99.90;;;;;;2075750;28;20059;-85
2023/02/22 04:57:21;;;;;;;19.83;12.57;;;8.30;99.90;;;;;;2079197;28;20048;-84
2023/02/22 04:58:24;;;;;;;20.77;12.23;;;8.30;99.90;;;;;;2077358;28;20044;-85
2023/02/22 04:59:24;;;;;;;19.30;11.75;;;8.30;99.90;;;;;;2077457;28;20044;-85
2023/02/22 05:00:32;;;;;;;20.02;12.02;;;8.40;99.90;;;;;;2082800;28;20435;-85
2023/02/22 05:01:36;;;;;;;19.33;12.57;;;8.30;99.90;;;;;;2074945;28;20182;-84
2023/02/22 05:02:41;;;;;;;17.92;11.57;;;8.40;99.90;;;;;;2078289;28;20032;-83
2023/02/22 05:03:42;;;;;;;18.90;11.77;;;8.40;99.90;;;;;;2086176;28;20028;-82
2023/02/22 05:04:43;;;;;;;17.48;11.32;;;8.40;99.90;;;;;;2079348;28;20468;-83
2023/02/22 05:05:44;;;;;;;19.80;12.18;;;8.40;99.90;;;;;;2078675;28;20083;-83
2023/02/22 05:06:44;;;;;;;18.35;11.48;;;8.30;99.90;;;;;;2075060;28;20171;-83
2023/02/22 05:07:45;;;;;;;18.92;11.60;;;8.40;99.90;;;;;;2080210;28;20028;-83
2023/02/22 05:08:46;;;;;;;16.35;11.45;;;8.40;99.90;;;;;;2076620;28;20048;-83
2023/02/22 05:09:47;;;;;;;16.58;11.15;;;8.40;99.90;;;;;;2078424;28;20025;-82
2023/02/22 05:10:48;;;;;;;19.70;11.65;;;8.40;99.90;;;;;;2077396;28;20480;-84
2023/02/22 05:11:48;;;;;;;16.92;11.23;;;8.40;99.90;;;;;;2075817;28;20029;-82
2023/02/22 05:12:49;;;;;;;16.95;11.40;;;8.40;99.90;;;;;;2082080;28;20439;-83
2023/02/22 05:13:50;;;;;;;17.30;11.40;;;8.50;99.90;;;;;;2088988;28;20942;-83
2023/02/22 05:14:50;;;;;;;19.60;12.23;;;8.40;99.90;;;;;;2085484;28;20633;-84
2023/02/22 05:15:52;;;;;;;21.02;12.70;;;8.40;99.90;;;;;;2076599;28;20488;-83
2023/02/22 05:16:59;;;;;;;18.85;12.32;;;8.40;99.90;;;;;;2083737;28;20035;-82
2023/02/22 05:17:59;;;;;;;22.85;12.68;;;8.40;99.90;;;;;;2093669;28;20234;-82
2023/02/22 05:19:00;;;;;;;20.08;11.80;;;8.40;99.90;;;;;;2093268;28;20028;-82
2023/02/22 05:20:01;;;;;;;21.52;12.55;;;8.30;99.90;;;;;;2095049;28;20072;-81
2023/02/22 05:21:02;;;;;;;23.60;12.35;;;8.30;99.90;;;;;;2088098;28;20514;-80
2023/02/22 05:22:04;;;;;;;23.15;12.77;;;8.30;99.90;;;;;;2085771;28;20047;-81
2023/02/22 05:23:05;;;;;;;20.40;12.65;;;8.30;99.90;;;;;;2084071;28;20061;-81
2023/02/22 05:24:06;;;;;;;20.65;12.20;;;8.20;99.90;;;;;;2081350;28;20365;-80
2023/02/22 05:25:06;;;;;;;19.52;12.32;;;8.20;99.90;;;;;;2078555;28;20044;-80
2023/02/22 05:26:09;;;;;;;18.42;11.45;;;8.20;99.90;;;;;;2083681;28;20024;-81
2023/02/22 05:27:10;;;;;;;17.52;11.38;;;8.20;99.90;;;;;;2083839;28;20009;-80
2023/02/22 05:28:13;;;;;;;19.45;11.80;;;8.20;99.90;;;;;;2080736;28;20037;-80
2023/02/22 05:29:13;;;;;;;18.98;11.32;;;8.20;99.90;;;;;;2079021;28;20033;-81
2023/02/22 05:30:14;;;;;;;18.02;11.68;;;8.20;99.90;;;;;;2078239;28;20589;-81
2023/02/22 05:31:14;;;;;;;20.38;11.95;;;8.30;99.90;;;;;;2082428;28;20124;-81
2023/02/22 05:32:15;;;;;;;16.55;11.32;;;8.30;99.90;;;;;;2085350;28;20025;-82
2023/02/22 05:33:16;;;;;;;19.02;11.75;;;8.30;99.90;;;;;;2095958;28;20086;-81
2023/02/22 05:34:16;;;;;;;22.17;12.00;;;8.30;99.90;;;;;;2084705;28;20040;-81
2023/02/22 05:35:19;;;;;;;19.27;12.20;;;8.30;99.90;;;;;;2073588;28;20025;-81
2023/02/22 05:36:19;;;;;;;20.33;12.40;;;8.30;99.90;;;;;;2081110;28;20528;-82
2023/02/22 05:37:20;;;;;;;17.55;11.80;;;8.30;99.90;;;;;;2085366;28;20260;-82
2023/02/22 05:38:21;;;;;;;19.30;12.00;;;8.30;99.90;;;;;;2093550;28;20067;-82